Time;durP1;ratioP1;P1;durP2;ratioP2;P2;SDS_P1;SDS_P2;PMS_P1;PMS_P2;Temp;Humidity;BMP_temperature;BMP_pressure;BME280_temperature;BME280_humidity;BME280_pressure;Samples;Min_cycle;Max_cycle;Signal;HPM_P1;HPM_P2
2021/12/03 00:01:32;;;;;;;0.90;0.80;;;21.30;42.10;;;;;;5087378;27;43462;-63
2021/12/03 00:04:00;;;;;;;0.73;0.73;;;21.30;42.70;;;;;;5094305;27;43540;-63
2021/12/03 00:06:27;;;;;;;0.90;0.90;;;21.20;42.10;;;;;;5077294;27;43661;-64
2021/12/03 00:08:54;;;;;;;0.68;0.68;;;21.30;42.10;;;;;;5086466;27;43456;-61
2021/12/03 00:11:22;;;;;;;0.75;0.75;;;21.30;42.00;;;;;;5087461;27;43454;-63
2021/12/03 00:13:49;;;;;;;1.30;0.65;;;21.30;42.00;;;;;;5090469;27;43577;-63
2021/12/03 00:16:17;;;;;;;0.90;0.88;;;21.20;41.90;;;;;;5074206;27;44024;-62
2021/12/03 00:18:45;;;;;;;1.05;0.95;;;21.20;42.00;;;;;;5070039;27;43823;-63
2021/12/03 00:21:13;;;;;;;0.70;0.70;;;21.20;42.00;;;;;;5079407;27;43447;-61
2021/12/03 00:23:40;;;;;;;0.93;0.80;;;21.20;42.00;;;;;;5086298;27;43454;-63
2021/12/03 00:26:08;;;;;;;1.75;1.10;;;21.20;41.90;;;;;;5079645;27;44650;-61
2021/12/03 00:28:38;;;;;;;0.90;0.90;;;21.10;41.90;;;;;;5087992;27;43521;-63
2021/12/03 00:31:06;;;;;;;1.48;1.00;;;21.20;42.00;;;;;;5082118;27;43510;-62
2021/12/03 00:33:35;;;;;;;1.00;1.00;;;21.10;41.90;;;;;;5090797;27;43420;-63
2021/12/03 00:36:06;;;;;;;0.80;0.80;;;21.10;42.00;;;;;;5075995;27;45030;-62
2021/12/03 00:38:38;;;;;;;1.25;1.05;;;21.10;41.90;;;;;;5084873;27;43479;-64
2021/12/03 00:41:09;;;;;;;0.80;0.80;;;21.10;42.00;;;;;;5088682;27;43567;-64
2021/12/03 00:43:40;;;;;;;0.68;0.68;;;21.00;41.90;;;;;;5063073;28;43532;-62
2021/12/03 00:46:09;;;;;;;1.45;1.10;;;21.10;41.90;;;;;;5057037;28;43815;-62
2021/12/03 00:48:38;;;;;;;0.90;0.80;;;21.00;41.90;;;;;;5084633;27;43494;-63
2021/12/03 00:51:07;;;;;;;1.08;0.77;;;21.00;41.90;;;;;;5091284;27;43448;-62
2021/12/03 00:53:36;;;;;;;0.73;0.73;;;21.00;42.00;;;;;;5055562;28;43861;-62
2021/12/03 00:56:05;;;;;;;1.05;0.95;;;20.90;41.90;;;;;;5084041;27;44054;-62
2021/12/03 00:58:33;;;;;;;1.33;0.95;;;20.90;41.90;;;;;;5084234;27;43418;-62
2021/12/03 01:01:01;;;;;;;1.00;0.80;;;20.90;41.90;;;;;;5087730;27;44160;-62
2021/12/03 01:03:29;;;;;;;2.47;1.05;;;20.90;41.80;;;;;;5075023;27;43991;-62
2021/12/03 01:05:57;;;;;;;1.13;0.80;;;20.90;41.80;;;;;;5085869;27;45013;-62
2021/12/03 01:08:27;;;;;;;1.48;0.82;;;20.90;41.80;;;;;;5083931;27;44043;-62
2021/12/03 01:10:55;;;;;;;0.75;0.70;;;20.90;41.80;;;;;;5065616;27;43459;-63
2021/12/03 01:13:22;;;;;;;0.73;0.73;;;20.90;41.90;;;;;;5068875;27;43606;-62
2021/12/03 01:15:50;;;;;;;0.90;0.70;;;20.90;41.90;;;;;;5087510;27;44204;-62
2021/12/03 01:18:18;;;;;;;1.23;0.85;;;20.80;41.90;;;;;;5085856;27;43470;-62
2021/12/03 01:20:46;;;;;;;0.70;0.70;;;20.80;41.90;;;;;;5079433;27;43494;-63
2021/12/03 01:23:14;;;;;;;0.57;0.57;;;20.80;42.00;;;;;;5085200;27;43963;-63
2021/12/03 01:25:42;;;;;;;0.70;0.70;;;20.80;42.00;;;;;;5083940;27;44421;-62
2021/12/03 01:28:11;;;;;;;0.77;0.50;;;20.80;42.00;;;;;;5085083;27;44088;-62
2021/12/03 01:30:39;;;;;;;1.27;0.75;;;20.80;42.00;;;;;;5074745;27;43432;-63
2021/12/03 01:33:07;;;;;;;1.27;0.93;;;20.80;42.00;;;;;;5085254;27;43537;-62
2021/12/03 01:35:36;;;;;;;0.70;0.70;;;20.80;42.10;;;;;;5082808;27;45120;-62
2021/12/03 01:38:06;;;;;;;0.70;0.70;;;20.80;42.10;;;;;;5084163;27;43486;-63
2021/12/03 01:40:35;;;;;;;1.10;1.00;;;20.80;42.10;;;;;;5072655;27;43517;-61
2021/12/03 01:43:04;;;;;;;1.80;1.30;;;20.70;42.10;;;;;;5086097;27;43556;-63
2021/12/03 01:45:35;;;;;;;1.40;1.30;;;20.70;42.20;;;;;;5083330;27;45130;-63
2021/12/03 01:48:03;;;;;;;1.70;1.40;;;20.70;42.20;;;;;;5082226;27;43897;-64
2021/12/03 01:50:36;;;;;;;2.05;1.50;;;20.70;42.30;;;;;;5079192;27;43819;-63
2021/12/03 01:53:05;;;;;;;1.98;1.75;;;20.70;42.30;;;;;;5087452;27;44202;-63
2021/12/03 01:55:33;;;;;;;2.20;1.70;;;20.70;42.20;;;;;;5083185;27;44368;-63
2021/12/03 01:58:01;;;;;;;2.08;1.88;;;20.70;42.30;;;;;;5075023;27;43806;-61
2021/12/03 02:00:36;;;;;;;2.28;1.70;;;20.70;42.30;;;;;;5065781;27;43447;-63
2021/12/03 02:03:06;;;;;;;1.83;1.70;;;20.70;42.30;;;;;;5083917;27;43575;-64
2021/12/03 02:05:34;;;;;;;2.23;1.90;;;20.60;42.20;;;;;;5085642;27;44043;-62
2021/12/03 02:08:02;;;;;;;2.33;1.88;;;20.70;42.30;;;;;;5052869;28;44127;-61
2021/12/03 02:10:29;;;;;;;1.92;1.70;;;20.60;42.30;;;;;;5086813;27;43512;-63
2021/12/03 02:12:57;;;;;;;2.47;1.80;;;20.60;42.20;;;;;;5066911;28;43593;-62
2021/12/03 02:15:24;;;;;;;2.00;1.80;;;20.60;42.20;;;;;;5070372;27;43902;-61
2021/12/03 02:17:52;;;;;;;2.03;1.70;;;20.60;42.30;;;;;;5070569;27;43992;-63
2021/12/03 02:20:20;;;;;;;1.50;1.40;;;20.60;42.30;;;;;;5081535;27;43434;-62
2021/12/03 02:22:48;;;;;;;1.55;1.45;;;20.60;42.30;;;;;;5077576;27;43547;-63
2021/12/03 02:25:20;;;;;;;1.60;1.30;;;20.60;42.20;;;;;;5083452;27;44977;-63
2021/12/03 02:27:53;;;;;;;1.60;1.40;;;20.60;42.10;;;;;;5082961;27;43526;-61
2021/12/03 02:30:22;;;;;;;1.90;1.50;;;20.60;42.10;;;;;;5088938;27;43514;-62
2021/12/03 02:32:50;;;;;;;1.80;1.60;;;20.70;42.20;;;;;;5082937;27;43574;-62
2021/12/03 02:35:19;;;;;;;1.20;1.10;;;20.70;42.10;;;;;;5053362;27;44197;-62
2021/12/03 02:37:47;;;;;;;2.38;1.50;;;20.60;42.00;;;;;;5085564;27;43956;-62
2021/12/03 02:40:16;;;;;;;1.50;1.40;;;20.60;42.10;;;;;;5084501;27;43449;-63
2021/12/03 02:42:45;;;;;;;1.42;1.33;;;20.60;42.10;;;;;;5077456;27;43602;-63
2021/12/03 02:45:14;;;;;;;1.42;1.33;;;20.60;42.10;;;;;;5073844;27;43894;-62
2021/12/03 02:47:42;;;;;;;1.50;1.20;;;20.60;42.20;;;;;;5086334;27;43991;-63
2021/12/03 02:50:11;;;;;;;1.33;1.23;;;20.60;42.80;;;;;;5087130;27;43948;-63
2021/12/03 02:52:39;;;;;;;1.55;1.45;;;20.60;42.20;;;;;;5082969;27;43521;-64
2021/12/03 02:55:08;;;;;;;1.42;1.27;;;20.60;42.20;;;;;;5085966;27;44206;-63
2021/12/03 02:57:35;;;;;;;1.23;1.10;;;20.60;42.20;;;;;;5092279;27;44272;-63
2021/12/03 03:00:08;;;;;;;1.65;1.35;;;20.60;42.20;;;;;;5085271;27;43535;-64
2021/12/03 03:02:36;;;;;;;1.83;1.30;;;20.60;42.20;;;;;;5082937;27;43531;-63
2021/12/03 03:05:04;;;;;;;1.90;1.30;;;20.50;42.20;;;;;;5084972;27;44930;-63
2021/12/03 03:07:31;;;;;;;1.30;1.20;;;20.50;42.20;;;;;;5090538;27;43415;-63
2021/12/03 03:09:59;;;;;;;1.25;1.15;;;20.50;42.30;;;;;;5075429;28;43439;-61
2021/12/03 03:12:26;;;;;;;1.65;1.33;;;20.50;42.30;;;;;;5080447;27;43518;-63
2021/12/03 03:14:57;;;;;;;1.52;1.00;;;20.50;42.20;;;;;;5089403;27;44140;-63
2021/12/03 03:17:27;;;;;;;1.35;1.05;;;20.50;42.50;;;;;;5087111;27;43967;-62
2021/12/03 03:19:57;;;;;;;1.30;1.20;;;20.50;42.30;;;;;;5079923;27;43510;-63
2021/12/03 03:22:25;;;;;;;1.30;1.20;;;20.50;42.40;;;;;;5080796;27;43472;-65
2021/12/03 03:24:54;;;;;;;1.13;1.02;;;20.50;42.30;;;;;;5083143;27;44214;-62
2021/12/03 03:27:21;;;;;;;1.27;1.00;;;20.40;42.30;;;;;;5087694;27;43508;-63
2021/12/03 03:29:51;;;;;;;1.13;1.02;;;20.40;42.30;;;;;;5060581;28;43521;-62
2021/12/03 03:32:19;;;;;;;1.15;1.02;;;20.40;42.30;;;;;;5076442;27;43626;-63
2021/12/03 03:34:46;;;;;;;1.00;0.90;;;20.40;42.40;;;;;;5093318;27;45374;-62
2021/12/03 03:37:14;;;;;;;0.88;0.85;;;20.40;42.40;;;;;;5084618;27;44035;-63
2021/12/03 03:39:45;;;;;;;1.10;1.00;;;20.40;42.40;;;;;;5076994;27;43436;-61
2021/12/03 03:42:13;;;;;;;1.30;1.20;;;20.40;42.30;;;;;;5081965;27;43587;-62
2021/12/03 03:44:41;;;;;;;1.45;1.13;;;20.40;42.40;;;;;;5074330;27;44151;-62
2021/12/03 03:47:09;;;;;;;1.10;1.00;;;20.30;42.30;;;;;;5082038;27;43501;-62
2021/12/03 03:49:36;;;;;;;0.82;0.82;;;20.30;42.40;;;;;;5076636;27;43499;-62
2021/12/03 03:52:05;;;;;;;1.35;1.02;;;20.30;42.40;;;;;;5077832;27;43642;-62
2021/12/03 03:54:33;;;;;;;1.52;1.15;;;20.30;42.30;;;;;;5091903;27;44431;-63
2021/12/03 03:57:01;;;;;;;1.05;0.98;;;20.30;42.40;;;;;;5079773;27;44106;-63
2021/12/03 03:59:29;;;;;;;1.13;1.02;;;20.30;42.40;;;;;;5074587;27;43422;-62
2021/12/03 04:01:56;;;;;;;1.10;1.00;;;20.30;42.40;;;;;;5078252;27;43586;-62
2021/12/03 04:04:25;;;;;;;1.20;1.00;;;20.30;42.40;;;;;;5092530;27;43897;-63
2021/12/03 04:06:53;;;;;;;1.00;0.80;;;20.30;42.40;;;;;;5074067;27;43535;-62
2021/12/03 04:09:20;;;;;;;0.93;0.82;;;20.30;42.40;;;;;;5076445;27;43465;-62
2021/12/03 04:11:48;;;;;;;1.08;0.90;;;20.20;42.40;;;;;;5093116;27;43616;-63
2021/12/03 04:14:15;;;;;;;0.75;0.70;;;20.20;42.30;;;;;;5084341;27;43884;-63
2021/12/03 04:16:43;;;;;;;1.42;1.10;;;20.20;42.40;;;;;;5075661;27;43466;-63
2021/12/03 04:19:10;;;;;;;0.75;0.68;;;20.20;42.40;;;;;;5070065;27;43478;-63
2021/12/03 04:21:38;;;;;;;1.48;1.30;;;20.20;42.40;;;;;;5085622;27;43470;-63
2021/12/03 04:24:05;;;;;;;1.30;1.10;;;20.20;42.40;;;;;;5088957;27;44097;-63
2021/12/03 04:26:33;;;;;;;0.70;0.70;;;20.20;42.30;;;;;;5081313;27;43495;-62
2021/12/03 04:29:00;;;;;;;1.33;0.95;;;20.20;42.30;;;;;;5094368;27;43424;-62
2021/12/03 04:31:29;;;;;;;1.10;1.00;;;20.20;42.20;;;;;;5091965;27;43551;-64
2021/12/03 04:33:57;;;;;;;1.40;0.90;;;20.20;42.20;;;;;;5085823;27;44096;-61
2021/12/03 04:36:24;;;;;;;1.10;0.93;;;20.20;42.20;;;;;;5077766;27;43924;-64
2021/12/03 04:38:52;;;;;;;0.77;0.77;;;20.20;42.10;;;;;;5087093;27;43571;-64
2021/12/03 04:41:19;;;;;;;0.90;0.70;;;20.20;42.10;;;;;;5086227;27;43640;-63
2021/12/03 04:43:46;;;;;;;0.88;0.77;;;20.20;42.10;;;;;;5076933;27;45071;-63
2021/12/03 04:46:14;;;;;;;1.02;0.85;;;20.30;42.10;;;;;;5070795;27;43871;-64
2021/12/03 04:48:41;;;;;;;0.70;0.70;;;20.20;42.00;;;;;;5069403;27;43494;-62
2021/12/03 04:51:09;;;;;;;0.80;0.80;;;20.20;42.00;;;;;;5075792;27;43655;-63
2021/12/03 04:53:36;;;;;;;1.17;1.00;;;20.20;42.00;;;;;;5073370;27;45041;-62
2021/12/03 04:56:03;;;;;;;1.00;0.90;;;20.20;42.10;;;;;;5085423;27;43827;-63
2021/12/03 04:58:31;;;;;;;0.98;0.70;;;20.20;42.10;;;;;;5086355;27;43959;-62
2021/12/03 05:00:59;;;;;;;0.65;0.60;;;20.20;42.00;;;;;;5087367;27;43554;-61
2021/12/03 05:03:29;;;;;;;1.08;0.80;;;20.20;42.00;;;;;;5074353;27;43838;-63
2021/12/03 05:06:00;;;;;;;2.28;1.10;;;20.20;41.90;;;;;;5085314;27;44002;-63
2021/12/03 05:08:29;;;;;;;0.88;0.82;;;20.10;42.00;;;;;;5086032;27;43536;-61
2021/12/03 05:10:58;;;;;;;0.82;0.82;;;20.10;42.10;;;;;;5069882;27;43617;-61
2021/12/03 05:13:30;;;;;;;1.23;0.90;;;20.10;42.20;;;;;;5077548;27;44476;-62
2021/12/03 05:16:00;;;;;;;1.10;0.88;;;20.10;42.20;;;;;;5085756;27;43474;-62
2021/12/03 05:18:28;;;;;;;0.70;0.68;;;20.10;42.20;;;;;;5090777;27;43465;-63
2021/12/03 05:20:59;;;;;;;0.93;0.90;;;20.00;42.20;;;;;;5076156;27;43487;-63
2021/12/03 05:23:28;;;;;;;1.15;0.90;;;20.00;42.30;;;;;;5086267;27;44066;-62
2021/12/03 05:25:57;;;;;;;0.80;0.75;;;19.90;42.30;;;;;;5083862;27;43471;-62
2021/12/03 05:28:26;;;;;;;0.90;0.77;;;20.00;42.40;;;;;;5089775;27;43431;-64
2021/12/03 05:30:54;;;;;;;1.50;1.20;;;19.90;42.30;;;;;;5085515;27;43652;-62
2021/12/03 05:33:21;;;;;;;1.65;0.95;;;19.90;42.30;;;;;;5085813;27;44641;-62
2021/12/03 05:35:49;;;;;;;1.13;1.13;;;19.90;42.30;;;;;;5083800;27;43783;-63
2021/12/03 05:38:16;;;;;;;1.30;0.98;;;19.90;42.30;;;;;;5085661;27;43518;-62
2021/12/03 05:40:45;;;;;;;1.20;1.10;;;19.90;42.40;;;;;;5068526;27;43609;-62
2021/12/03 05:43:16;;;;;;;1.17;1.08;;;19.90;42.40;;;;;;5083492;27;44860;-63
2021/12/03 05:45:44;;;;;;;1.20;1.10;;;19.80;42.50;;;;;;5069751;27;44011;-62
2021/12/03 05:48:13;;;;;;;1.10;1.00;;;19.80;42.50;;;;;;5082608;27;43494;-62
2021/12/03 05:50:41;;;;;;;1.13;1.08;;;19.80;42.50;;;;;;5088034;27;43597;-62
2021/12/03 05:53:09;;;;;;;1.63;1.30;;;19.80;42.60;;;;;;5071746;28;44140;-63
2021/12/03 05:55:36;;;;;;;1.65;1.30;;;19.80;42.50;;;;;;5084697;27;43482;-64
2021/12/03 05:58:03;;;;;;;1.30;1.10;;;19.70;42.50;;;;;;5079999;27;43490;-63
2021/12/03 06:00:34;;;;;;;2.00;1.10;;;19.70;42.60;;;;;;5088036;27;43578;-63
2021/12/03 06:03:03;;;;;;;1.80;1.30;;;19.70;42.60;;;;;;5070724;28;44068;-62
2021/12/03 06:05:33;;;;;;;1.20;1.10;;;19.70;42.50;;;;;;5090838;27;43623;-63
2021/12/03 06:08:00;;;;;;;1.33;1.20;;;19.70;42.50;;;;;;5075031;27;43417;-63
2021/12/03 06:10:27;;;;;;;1.27;1.15;;;19.70;43.20;;;;;;5088871;27;43661;-63
2021/12/03 06:12:56;;;;;;;1.50;1.30;;;19.70;42.60;;;;;;5068878;28;45009;-62
2021/12/03 06:15:23;;;;;;;1.90;1.20;;;19.70;42.60;;;;;;5085547;27;44130;-63
2021/12/03 06:17:51;;;;;;;1.73;1.20;;;19.70;42.60;;;;;;5068618;28;43396;-62
2021/12/03 06:20:19;;;;;;;1.55;1.20;;;19.70;42.60;;;;;;5080803;27;43529;-62
2021/12/03 06:22:47;;;;;;;1.20;1.10;;;19.70;42.60;;;;;;5085921;27;45069;-63
2021/12/03 06:25:18;;;;;;;1.17;1.08;;;19.70;42.70;;;;;;5084973;27;43733;-63
2021/12/03 06:27:45;;;;;;;1.20;1.10;;;19.70;42.70;;;;;;5084034;27;43493;-63
2021/12/03 06:30:17;;;;;;;1.20;1.08;;;19.70;42.60;;;;;;5089808;27;43586;-62
2021/12/03 06:32:44;;;;;;;1.27;1.05;;;19.70;42.70;;;;;;5076583;27;44205;-63
2021/12/03 06:35:14;;;;;;;1.30;1.20;;;19.70;42.70;;;;;;5063596;27;44343;-64
2021/12/03 06:37:42;;;;;;;1.30;1.13;;;19.70;42.70;;;;;;5085640;27;43483;-63
2021/12/03 06:40:14;;;;;;;1.30;1.13;;;19.70;42.60;;;;;;5087531;27;43549;-63
2021/12/03 06:42:41;;;;;;;1.40;1.30;;;19.80;42.70;;;;;;5064372;27;45022;-63
2021/12/03 06:45:10;;;;;;;1.15;1.05;;;19.70;42.70;;;;;;5073893;27;44089;-63
2021/12/03 06:47:37;;;;;;;1.50;1.25;;;19.70;42.70;;;;;;5086659;27;43492;-62
2021/12/03 06:50:08;;;;;;;1.33;1.23;;;19.80;42.70;;;;;;5085962;27;43506;-62
2021/12/03 06:52:38;;;;;;;1.17;1.08;;;19.80;42.70;;;;;;5083236;27;44864;-63
2021/12/03 06:55:09;;;;;;;1.77;1.10;;;19.80;42.70;;;;;;5082523;27;44112;-62
2021/12/03 06:57:37;;;;;;;1.40;1.30;;;19.80;42.70;;;;;;5091220;27;44035;-62
2021/12/03 07:00:06;;;;;;;1.45;1.15;;;19.80;42.60;;;;;;5067128;28;44008;-63
2021/12/03 07:02:33;;;;;;;1.75;1.33;;;19.80;42.70;;;;;;5083349;27;45081;-63
2021/12/03 07:05:04;;;;;;;1.00;1.00;;;19.90;42.60;;;;;;5084856;27;43484;-63
2021/12/03 07:07:32;;;;;;;1.35;1.20;;;19.90;42.60;;;;;;5089789;27;43414;-62
2021/12/03 07:10:00;;;;;;;1.10;1.00;;;19.90;42.50;;;;;;5082839;27;43640;-62
2021/12/03 07:12:28;;;;;;;1.58;1.13;;;19.90;42.60;;;;;;5070762;27;45062;-62
2021/12/03 07:14:56;;;;;;;1.20;1.10;;;19.90;42.60;;;;;;5083507;27;43998;-63
2021/12/03 07:17:24;;;;;;;1.33;1.10;;;19.90;42.50;;;;;;5087879;27;43502;-63
2021/12/03 07:19:55;;;;;;;1.05;0.85;;;19.90;42.50;;;;;;5080290;27;43662;-63
2021/12/03 07:22:23;;;;;;;1.13;1.02;;;20.00;42.50;;;;;;5074240;27;44979;-63
2021/12/03 07:24:50;;;;;;;1.23;1.13;;;20.00;42.50;;;;;;5084470;27;44391;-63
2021/12/03 07:27:18;;;;;;;1.17;1.00;;;20.00;42.50;;;;;;5087161;27;43410;-62
2021/12/03 07:29:47;;;;;;;1.35;1.25;;;20.10;42.50;;;;;;5078258;27;43414;-61
2021/12/03 07:32:18;;;;;;;2.60;1.00;;;20.00;42.90;;;;;;5076272;27;44327;-62
2021/12/03 07:34:45;;;;;;;3.45;2.20;;;20.00;42.60;;;;;;5078863;27;43717;-64
2021/12/03 07:37:13;;;;;;;2.47;1.70;;;20.10;42.70;;;;;;5073189;27;43571;-63
2021/12/03 07:39:44;;;;;;;3.53;1.70;;;20.10;42.90;;;;;;5066812;27;44824;-64
2021/12/03 07:42:11;;;;;;;2.17;1.88;;;20.20;42.70;;;;;;5045359;28;44201;-62
2021/12/03 07:44:38;;;;;;;2.25;1.80;;;20.20;42.60;;;;;;5066544;27;43975;-62
2021/12/03 07:47:06;;;;;;;1.98;1.50;;;20.40;42.70;;;;;;5067664;27;44187;-63
2021/12/03 07:49:35;;;;;;;2.17;1.40;;;20.50;42.50;;;;;;5067060;27;43564;-64
2021/12/03 07:52:03;;;;;;;2.17;1.58;;;20.60;42.40;;;;;;5068529;27;44092;-64
2021/12/03 07:54:30;;;;;;;2.13;1.60;;;20.70;42.30;;;;;;5063271;27;43897;-62
2021/12/03 07:56:58;;;;;;;2.03;1.30;;;20.80;42.20;;;;;;5057538;28;43594;-62
2021/12/03 07:59:26;;;;;;;2.00;1.55;;;20.90;42.10;;;;;;5067023;27;43637;-64
2021/12/03 08:01:53;;;;;;;2.20;1.63;;;21.00;42.20;;;;;;5061419;27;45022;-62
2021/12/03 08:04:20;;;;;;;2.88;1.40;;;21.10;42.10;;;;;;5065835;27;43854;-62
2021/12/03 08:06:54;;;;;;;2.20;1.10;;;21.20;42.00;;;;;;5070945;27;43564;-62
2021/12/03 08:09:22;;;;;;;2.10;1.48;;;21.20;41.90;;;;;;5063201;27;43612;-61
2021/12/03 08:11:50;;;;;;;1.40;1.30;;;21.40;41.80;;;;;;5063667;27;43795;-62
2021/12/03 08:14:17;;;;;;;1.88;1.20;;;21.50;41.70;;;;;;5066854;27;43671;-63
2021/12/03 08:16:46;;;;;;;1.92;1.40;;;21.60;41.70;;;;;;5066224;27;43645;-62
2021/12/03 08:19:13;;;;;;;1.88;1.20;;;21.70;41.60;;;;;;5066681;27;43669;-62
2021/12/03 08:21:41;;;;;;;1.30;1.20;;;21.80;41.50;;;;;;5066918;27;45142;-61
2021/12/03 08:24:08;;;;;;;1.27;1.17;;;21.80;41.40;;;;;;5062902;27;43592;-63
2021/12/03 08:26:35;;;;;;;2.80;1.50;;;22.00;41.40;;;;;;5068650;27;43597;-63
2021/12/03 08:29:04;;;;;;;2.28;1.27;;;22.10;41.40;;;;;;5065357;27;44580;-62
2021/12/03 08:31:32;;;;;;;1.95;1.33;;;22.20;41.30;;;;;;5055775;28;45102;-64
2021/12/03 08:34:00;;;;;;;1.30;1.13;;;22.20;41.10;;;;;;5063225;27;43719;-63
2021/12/03 08:36:27;;;;;;;1.25;1.10;;;22.40;41.10;;;;;;5065592;27;43558;-62
2021/12/03 08:38:55;;;;;;;1.52;1.40;;;22.40;40.90;;;;;;5064614;27;44210;-63
2021/12/03 08:41:22;;;;;;;2.78;1.15;;;22.50;40.90;;;;;;5064602;27;44980;-61
2021/12/03 08:43:50;;;;;;;1.33;1.10;;;22.60;40.90;;;;;;5065248;27;43583;-62
2021/12/03 08:48:55;;;;;;;2.58;1.08;;;22.70;40.70;;;;;;5063629;27;43740;-62
2021/12/03 08:51:29;;;;;;;2.22;1.40;;;22.70;40.70;;;;;;5066883;27;44235;-63
2021/12/03 08:56:43;;;;;;;1.77;1.20;;;22.80;40.70;;;;;;5065975;27;44222;-61
2021/12/03 08:59:10;;;;;;;1.27;1.05;;;22.90;40.70;;;;;;5068056;27;43564;-62
2021/12/03 09:01:37;;;;;;;3.67;1.08;;;22.90;40.60;;;;;;5063271;27;44826;-62
2021/12/03 09:04:06;;;;;;;1.52;1.00;;;23.00;40.80;;;;;;5066835;27;43687;-63
2021/12/03 09:06:34;;;;;;;1.40;1.30;;;23.10;40.90;;;;;;5064745;27;43588;-63
2021/12/03 09:09:06;;;;;;;2.70;1.17;;;23.10;40.50;;;;;;5055012;28;43617;-61
2021/12/03 09:11:36;;;;;;;3.08;1.30;;;23.10;40.60;;;;;;5064387;27;44704;-62
2021/12/03 09:15:08;;;;;;;2.97;1.20;;;23.10;40.60;;;;;;5065308;27;44105;-61
2021/12/03 09:22:43;;;;;;;1.83;1.05;;;23.40;40.50;;;;;;5065528;27;43906;-62
2021/12/03 09:25:14;;;;;;;1.80;1.02;;;23.40;40.40;;;;;;5066068;27;43612;-62
2021/12/03 09:27:42;;;;;;;2.92;1.15;;;23.50;40.60;;;;;;5052623;28;44824;-63
2021/12/03 09:30:13;;;;;;;2.65;1.20;;;23.50;40.60;;;;;;5067249;27;43582;-63
2021/12/03 09:32:46;;;;;;;2.90;0.98;;;23.60;40.80;;;;;;5063450;27;44973;-62
2021/12/03 09:35:13;;;;;;;1.50;0.98;;;23.70;40.90;;;;;;5063182;27;44367;-62
2021/12/03 09:37:40;;;;;;;1.92;0.95;;;23.70;40.90;;;;;;5066092;27;43511;-62
2021/12/03 09:40:09;;;;;;;2.95;1.13;;;23.70;40.90;;;;;;5063622;27;43665;-62
2021/12/03 09:42:38;;;;;;;1.35;1.08;;;23.80;40.80;;;;;;5065189;28;44875;-63
2021/12/03 09:45:08;;;;;;;1.98;0.93;;;23.80;41.00;;;;;;5065220;27;43638;-62
2021/12/03 09:47:36;;;;;;;1.20;0.98;;;23.90;41.00;;;;;;5062208;27;43631;-63
2021/12/03 09:50:07;;;;;;;1.40;1.00;;;23.90;41.00;;;;;;5065614;27;43601;-63
2021/12/03 09:52:56;;;;;;;1.75;0.93;;;23.90;41.10;;;;;;5066100;27;43782;-62
2021/12/03 09:55:24;;;;;;;4.32;1.45;;;23.90;41.20;;;;;;5066674;27;43551;-63
2021/12/03 10:00:32;;;;;;;1.73;1.10;;;23.90;40.90;;;;;;5068156;27;43668;-62
2021/12/03 10:09:34;;;;;;;1.83;1.00;;;24.10;40.70;;;;;;5066507;27;43595;-62
2021/12/03 10:25:16;;;;;;;5.97;1.60;;;24.40;40.30;;;;;;5065447;27;44882;-62
2021/12/03 10:28:15;;;;;;;4.10;1.83;;;24.40;40.30;;;;;;5064193;27;44205;-63
2021/12/03 10:38:57;;;;;;;2.55;1.23;;;24.50;40.30;;;;;;5057567;27;43959;-63
2021/12/03 10:49:21;;;;;;;4.10;1.38;;;24.50;40.40;;;;;;5065341;27;43576;-62
2021/12/03 10:52:10;;;;;;;4.90;1.48;;;24.50;40.40;;;;;;5066377;27;44761;-63
2021/12/03 11:41:19;;;;;;;4.30;1.40;;;24.30;40.90;;;;;;5069576;27;43948;-63
2021/12/03 13:18:30;;;;;;;3.25;1.80;;;23.50;41.60;;;;;;5046678;27;43598;-64
2021/12/03 13:20:38;;;;;;;3.38;1.63;;;23.50;41.30;;;;;;5050716;27;43574;-62
2021/12/03 13:26:49;;;;;;;3.17;1.77;;;23.40;41.20;;;;;;5063758;27;43512;-63
2021/12/03 14:45:10;;;;;;;2.25;1.50;;;22.90;41.80;;;;;;5070660;27;43700;-63
2021/12/03 14:47:53;;;;;;;2.67;1.75;;;22.90;41.80;;;;;;5071283;27;43576;-63
2021/12/03 14:55:36;;;;;;;2.58;1.50;;;22.90;41.80;;;;;;5067564;27;43989;-64
2021/12/03 14:58:28;;;;;;;3.03;1.83;;;22.90;41.80;;;;;;5056894;28;43609;-63
2021/12/03 15:01:02;;;;;;;2.35;1.60;;;22.90;41.70;;;;;;5066708;27;43688;-63
2021/12/03 15:06:49;;;;;;;2.17;1.77;;;22.90;41.70;;;;;;4987203;28;43619;-64
2021/12/03 15:09:26;;;;;;;2.47;2.03;;;22.90;41.60;;;;;;4986912;28;43591;-63
2021/12/03 15:40:38;;;;;;;2.45;1.60;;;23.10;41.60;;;;;;5048909;28;43637;-63
2021/12/03 16:08:01;;;;;;;2.28;1.70;;;23.00;40.80;;;;;;5059949;27;44185;-62
2021/12/03 16:21:35;;;;;;;2.90;1.42;;;22.90;41.10;;;;;;5049752;28;43985;-61
2021/12/03 16:46:26;;;;;;;1.35;1.25;;;22.60;41.20;;;;;;5063992;27;43674;-61
2021/12/03 16:54:15;;;;;;;1.40;1.30;;;22.60;41.20;;;;;;5066289;27;43678;-62
2021/12/03 16:56:51;;;;;;;0.90;0.80;;;22.60;41.20;;;;;;5053832;28;43625;-62
2021/12/03 16:59:19;;;;;;;1.52;1.42;;;22.60;41.20;;;;;;5064434;27;43696;-62
2021/12/03 17:10:15;;;;;;;1.63;1.52;;;22.50;41.30;;;;;;5060196;28;43670;-63
2021/12/03 17:12:56;;;;;;;1.52;1.20;;;22.50;41.30;;;;;;5060253;27;44019;-62
2021/12/03 17:29:08;;;;;;;0.95;0.95;;;22.40;41.60;;;;;;5060651;27;44145;-62
2021/12/03 17:50:36;;;;;;;1.00;1.00;;;22.30;41.60;;;;;;5070390;27;43581;-62
2021/12/03 17:58:44;;;;;;;1.10;0.95;;;22.30;41.70;;;;;;5068748;27;43569;-62
2021/12/03 18:01:21;;;;;;;0.80;0.80;;;22.30;41.70;;;;;;5070571;27;43569;-62
2021/12/03 18:04:12;;;;;;;0.80;0.80;;;22.30;41.70;;;;;;5068416;27;44600;-62
2021/12/03 18:07:07;;;;;;;0.90;0.90;;;22.30;41.70;;;;;;5065426;27;45142;-62
2021/12/03 18:55:57;;;;;;;0.65;0.65;;;22.20;42.00;;;;;;5071547;27;43502;-61
2021/12/03 18:58:30;;;;;;;0.68;0.68;;;22.20;42.00;;;;;;5049441;27;43684;-62
2021/12/03 19:01:08;;;;;;;0.70;0.70;;;22.20;42.00;;;;;;5061864;27;44751;-62
2021/12/03 19:03:55;;;;;;;0.60;0.60;;;22.20;42.00;;;;;;5053258;27;43592;-62
2021/12/03 19:06:29;;;;;;;0.60;0.60;;;22.20;42.10;;;;;;5068889;27;43576;-62
2021/12/03 19:09:05;;;;;;;0.60;0.60;;;22.20;42.10;;;;;;5073252;27;43554;-62
2021/12/03 19:14:07;;;;;;;0.70;0.70;;;22.20;42.10;;;;;;5072306;27;44579;-62
2021/12/03 19:16:35;;;;;;;0.80;0.80;;;22.20;42.10;;;;;;5043986;27;43614;-62
2021/12/03 19:19:04;;;;;;;0.80;0.80;;;22.20;42.20;;;;;;5073355;27;43672;-63
2021/12/03 19:21:39;;;;;;;0.63;0.63;;;22.20;42.20;;;;;;5055831;28;43919;-62
2021/12/03 19:24:10;;;;;;;0.60;0.60;;;22.10;42.20;;;;;;5038024;27;43566;-62
2021/12/03 19:26:43;;;;;;;0.70;0.70;;;22.10;42.20;;;;;;5067742;27;44225;-62
2021/12/03 19:29:20;;;;;;;0.80;0.80;;;22.10;42.20;;;;;;5060460;27;43692;-63
2021/12/03 19:31:50;;;;;;;1.15;1.05;;;22.10;42.30;;;;;;5068313;27;44930;-61
2021/12/03 19:34:25;;;;;;;0.95;0.90;;;22.20;42.20;;;;;;5066351;27;43590;-63
2021/12/03 19:36:55;;;;;;;0.70;0.70;;;22.20;42.20;;;;;;5068709;27;43642;-62
2021/12/03 19:39:25;;;;;;;0.98;0.98;;;22.20;42.20;;;;;;5067619;27;43668;-62
2021/12/03 19:44:37;;;;;;;0.68;0.68;;;22.30;42.20;;;;;;5055735;28;43626;-62
2021/12/03 19:47:08;;;;;;;;;;;22.20;42.10;;;;;;5067815;27;43553;-62
2021/12/03 19:49:46;;;;;;;0.63;0.63;;;22.20;42.20;;;;;;5065680;27;43627;-63
2021/12/03 19:52:28;;;;;;;0.68;0.68;;;22.20;42.20;;;;;;5058750;28;45028;-62
2021/12/03 19:54:55;;;;;;;;;;;22.20;42.20;;;;;;5066336;27;43737;-62
2021/12/03 19:57:23;;;;;;;0.80;0.80;;;22.20;42.20;;;;;;5068255;27;43565;-62
2021/12/03 19:59:54;;;;;;;0.90;0.90;;;22.20;42.20;;;;;;5066485;27;43581;-63
2021/12/03 20:02:24;;;;;;;0.90;0.90;;;22.20;42.20;;;;;;5065252;27;44130;-63
2021/12/03 20:04:55;;;;;;;0.80;0.80;;;22.30;42.20;;;;;;5063089;27;44044;-62
2021/12/03 20:07:23;;;;;;;0.90;0.90;;;22.30;42.20;;;;;;5070064;27;43608;-62
2021/12/03 20:10:03;;;;;;;0.90;0.90;;;22.20;42.20;;;;;;5064739;27;43692;-61
2021/12/03 20:12:33;;;;;;;0.98;0.98;;;22.20;42.20;;;;;;5063167;27;43867;-63
2021/12/03 20:15:02;;;;;;;0.82;0.82;;;22.30;42.20;;;;;;5065702;27;43579;-66
2021/12/03 20:17:33;;;;;;;1.30;1.20;;;22.20;42.50;;;;;;5062435;27;43541;-63
2021/12/03 20:20:03;;;;;;;0.85;0.85;;;22.30;42.30;;;;;;5068003;27;43944;-63
2021/12/03 20:22:43;;;;;;;1.02;1.02;;;22.30;42.20;;;;;;5063650;27;44971;-61
2021/12/03 20:28:09;;;;;;;1.00;1.00;;;22.30;42.30;;;;;;5066806;27;43525;-63
2021/12/03 20:31:03;;;;;;;0.90;0.90;;;22.30;42.40;;;;;;5058754;27;43671;-63
2021/12/03 20:38:35;;;;;;;1.42;1.10;;;22.30;42.30;;;;;;5062080;27;43616;-62
2021/12/03 20:41:07;;;;;;;1.00;1.00;;;22.30;42.30;;;;;;5067434;27;43743;-63
2021/12/03 20:44:01;;;;;;;1.33;1.30;;;22.30;42.30;;;;;;5058192;27;44893;-63
2021/12/03 20:54:26;;;;;;;1.10;1.10;;;22.30;42.30;;;;;;5063483;27;44299;-63
2021/12/03 21:10:30;;;;;;;1.38;1.38;;;22.40;42.40;;;;;;5064597;28;43599;-62
2021/12/03 21:13:09;;;;;;;1.45;1.25;;;22.40;43.10;;;;;;5065106;28;43672;-63
2021/12/03 21:23:24;;;;;;;1.60;1.50;;;22.40;42.30;;;;;;5062261;27;43610;-64
2021/12/03 21:25:55;;;;;;;1.80;1.70;;;22.40;42.40;;;;;;5066364;27;44924;-62
2021/12/03 21:38:03;;;;;;;1.83;1.73;;;22.40;42.30;;;;;;5065181;28;43479;-64